sensor_id;sensor_type;location;lat;lon;timestamp;temperature;humidity
3868;DHT22;1949;48.152;11.528;2023-07-20T00:02:15;28.00;33.50
3868;DHT22;1949;48.152;11.528;2023-07-20T00:04:41;27.90;33.50
3868;DHT22;1949;48.152;11.528;2023-07-20T00:07:13;27.80;33.60
3868;DHT22;1949;48.152;11.528;2023-07-20T00:09:39;27.80;33.70
3868;DHT22;1949;48.152;11.528;2023-07-20T00:12:07;27.80;33.60
3868;DHT22;1949;48.152;11.528;2023-07-20T00:14:41;27.80;33.80
3868;DHT22;1949;48.152;11.528;2023-07-20T00:17:07;27.80;33.70
3868;DHT22;1949;48.152;11.528;2023-07-20T00:19:32;27.80;33.80
3868;DHT22;1949;48.152;11.528;2023-07-20T00:21:59;27.80;33.90
3868;DHT22;1949;48.152;11.528;2023-07-20T00:24:31;27.80;33.80
3868;DHT22;1949;48.152;11.528;2023-07-20T00:26:58;27.80;33.70
3868;DHT22;1949;48.152;11.528;2023-07-20T00:29:26;27.80;33.70
3868;DHT22;1949;48.152;11.528;2023-07-20T00:31:54;27.80;33.80
3868;DHT22;1949;48.152;11.528;2023-07-20T00:34:19;27.70;33.80
3868;DHT22;1949;48.152;11.528;2023-07-20T00:36:48;27.70;33.90
3868;DHT22;1949;48.152;11.528;2023-07-20T00:39:16;27.80;33.90
3868;DHT22;1949;48.152;11.528;2023-07-20T00:41:43;27.80;33.90
3868;DHT22;1949;48.152;11.528;2023-07-20T00:44:11;27.80;33.90
3868;DHT22;1949;48.152;11.528;2023-07-20T00:46:37;27.80;33.90
3868;DHT22;1949;48.152;11.528;2023-07-20T00:49:04;27.70;33.90
3868;DHT22;1949;48.152;11.528;2023-07-20T00:51:36;27.80;34.00
3868;DHT22;1949;48.152;11.528;2023-07-20T00:54:05;27.80;34.10
3868;DHT22;1949;48.152;11.528;2023-07-20T00:56:32;27.80;34.10
3868;DHT22;1949;48.152;11.528;2023-07-20T00:58:59;27.80;34.00
3868;DHT22;1949;48.152;11.528;2023-07-20T01:01:24;27.80;34.10
3868;DHT22;1949;48.152;11.528;2023-07-20T01:03:52;27.80;34.10
3868;DHT22;1949;48.152;11.528;2023-07-20T01:09:43;27.80;34.20
3868;DHT22;1949;48.152;11.528;2023-07-20T01:15:06;27.80;34.00
3868;DHT22;1949;48.152;11.528;2023-07-20T01:17:34;27.70;34.20
3868;DHT22;1949;48.152;11.528;2023-07-20T01:20:01;27.60;34.20
3868;DHT22;1949;48.152;11.528;2023-07-20T01:25:58;27.60;34.40
3868;DHT22;1949;48.152;11.528;2023-07-20T01:31:24;27.60;34.50
3868;DHT22;1949;48.152;11.528;2023-07-20T01:33:57;27.60;34.50
3868;DHT22;1949;48.152;11.528;2023-07-20T01:36:33;27.60;34.60
3868;DHT22;1949;48.152;11.528;2023-07-20T01:39:04;27.60;34.60
3868;DHT22;1949;48.152;11.528;2023-07-20T01:41:31;27.60;34.60
3868;DHT22;1949;48.152;11.528;2023-07-20T01:44:00;27.50;34.50
3868;DHT22;1949;48.152;11.528;2023-07-20T01:46:28;27.50;34.70
3868;DHT22;1949;48.152;11.528;2023-07-20T01:48:54;27.50;34.70
3868;DHT22;1949;48.152;11.528;2023-07-20T01:51:27;27.50;34.70
3868;DHT22;1949;48.152;11.528;2023-07-20T01:53:59;27.50;34.70
3868;DHT22;1949;48.152;11.528;2023-07-20T01:56:28;27.50;34.70
3868;DHT22;1949;48.152;11.528;2023-07-20T01:58:58;27.40;34.80
3868;DHT22;1949;48.152;11.528;2023-07-20T02:01:26;27.50;35.00
3868;DHT22;1949;48.152;11.528;2023-07-20T02:04:00;27.40;34.80
3868;DHT22;1949;48.152;11.528;2023-07-20T02:06:27;27.40;34.80
3868;DHT22;1949;48.152;11.528;2023-07-20T02:08:55;27.30;34.80
3868;DHT22;1949;48.152;11.528;2023-07-20T02:11:21;27.30;34.90
3868;DHT22;1949;48.152;11.528;2023-07-20T02:13:50;27.10;34.90
3868;DHT22;1949;48.152;11.528;2023-07-20T02:16:19;27.10;35.10
3868;DHT22;1949;48.152;11.528;2023-07-20T02:18:46;27.00;35.10
3868;DHT22;1949;48.152;11.528;2023-07-20T02:21:14;27.00;35.20
3868;DHT22;1949;48.152;11.528;2023-07-20T02:23:41;26.90;35.30
3868;DHT22;1949;48.152;11.528;2023-07-20T02:26:09;26.80;35.40
3868;DHT22;1949;48.152;11.528;2023-07-20T02:28:41;26.80;35.60
3868;DHT22;1949;48.152;11.528;2023-07-20T02:31:12;26.80;35.60
3868;DHT22;1949;48.152;11.528;2023-07-20T02:33:43;26.90;35.70
3868;DHT22;1949;48.152;11.528;2023-07-20T02:36:09;26.90;35.50
3868;DHT22;1949;48.152;11.528;2023-07-20T02:38:36;26.90;35.30
3868;DHT22;1949;48.152;11.528;2023-07-20T02:41:03;26.90;35.30
3868;DHT22;1949;48.152;11.528;2023-07-20T02:43:30;27.00;35.20
3868;DHT22;1949;48.152;11.528;2023-07-20T02:45:55;27.00;35.10
3868;DHT22;1949;48.152;11.528;2023-07-20T02:48:21;27.00;35.00
3868;DHT22;1949;48.152;11.528;2023-07-20T02:50:46;27.00;35.00
3868;DHT22;1949;48.152;11.528;2023-07-20T02:53:15;27.00;35.00
3868;DHT22;1949;48.152;11.528;2023-07-20T02:55:41;27.00;35.00
3868;DHT22;1949;48.152;11.528;2023-07-20T02:58:18;27.00;34.90
3868;DHT22;1949;48.152;11.528;2023-07-20T03:00:43;27.00;34.90
3868;DHT22;1949;48.152;11.528;2023-07-20T03:03:14;27.00;34.90
3868;DHT22;1949;48.152;11.528;2023-07-20T03:05:41;26.90;35.00
3868;DHT22;1949;48.152;11.528;2023-07-20T03:08:14;26.90;35.10
3868;DHT22;1949;48.152;11.528;2023-07-20T03:10:41;26.80;35.20
3868;DHT22;1949;48.152;11.528;2023-07-20T03:13:09;26.80;35.20
3868;DHT22;1949;48.152;11.528;2023-07-20T03:15:34;26.70;35.20
3868;DHT22;1949;48.152;11.528;2023-07-20T03:18:22;26.60;35.30
3868;DHT22;1949;48.152;11.528;2023-07-20T03:20:47;26.60;35.40
3868;DHT22;1949;48.152;11.528;2023-07-20T03:23:14;26.50;35.50
3868;DHT22;1949;48.152;11.528;2023-07-20T03:25:44;26.40;35.60
3868;DHT22;1949;48.152;11.528;2023-07-20T03:28:09;26.30;35.80
3868;DHT22;1949;48.152;11.528;2023-07-20T03:30:35;26.20;36.00
3868;DHT22;1949;48.152;11.528;2023-07-20T03:33:01;26.10;36.20
3868;DHT22;1949;48.152;11.528;2023-07-20T03:35:28;26.00;36.50
3868;DHT22;1949;48.152;11.528;2023-07-20T03:37:56;25.90;36.90
3868;DHT22;1949;48.152;11.528;2023-07-20T03:40:25;25.70;37.20
3868;DHT22;1949;48.152;11.528;2023-07-20T03:42:51;25.50;37.60
3868;DHT22;1949;48.152;11.528;2023-07-20T03:45:19;25.40;37.90
3868;DHT22;1949;48.152;11.528;2023-07-20T03:47:45;25.30;38.20
3868;DHT22;1949;48.152;11.528;2023-07-20T03:50:10;25.20;38.40
3868;DHT22;1949;48.152;11.528;2023-07-20T03:52:37;25.10;38.70
3868;DHT22;1949;48.152;11.528;2023-07-20T03:55:04;25.10;38.70
3868;DHT22;1949;48.152;11.528;2023-07-20T03:57:30;25.00;38.90
3868;DHT22;1949;48.152;11.528;2023-07-20T03:59:57;25.00;39.10
3868;DHT22;1949;48.152;11.528;2023-07-20T04:02:27;25.10;39.30
3868;DHT22;1949;48.152;11.528;2023-07-20T04:04:53;25.10;39.50
3868;DHT22;1949;48.152;11.528;2023-07-20T04:07:18;25.20;39.60
3868;DHT22;1949;48.152;11.528;2023-07-20T04:09:46;25.30;39.50
3868;DHT22;1949;48.152;11.528;2023-07-20T04:12:12;25.30;39.40
3868;DHT22;1949;48.152;11.528;2023-07-20T04:14:39;25.30;39.40
3868;DHT22;1949;48.152;11.528;2023-07-20T04:17:06;25.30;39.30
3868;DHT22;1949;48.152;11.528;2023-07-20T04:19:32;25.30;39.50
3868;DHT22;1949;48.152;11.528;2023-07-20T04:21:59;25.30;39.50
3868;DHT22;1949;48.152;11.528;2023-07-20T04:24:25;25.30;39.70
3868;DHT22;1949;48.152;11.528;2023-07-20T04:26:52;25.30;39.70
3868;DHT22;1949;48.152;11.528;2023-07-20T04:29:20;25.30;39.80
3868;DHT22;1949;48.152;11.528;2023-07-20T04:31:46;25.40;39.90
3868;DHT22;1949;48.152;11.528;2023-07-20T04:34:14;25.40;39.70
3868;DHT22;1949;48.152;11.528;2023-07-20T04:36:40;25.40;39.70
3868;DHT22;1949;48.152;11.528;2023-07-20T04:39:06;25.50;39.70
3868;DHT22;1949;48.152;11.528;2023-07-20T04:41:34;25.50;39.70
3868;DHT22;1949;48.152;11.528;2023-07-20T04:43:59;25.50;39.80
3868;DHT22;1949;48.152;11.528;2023-07-20T04:46:26;25.50;39.70
3868;DHT22;1949;48.152;11.528;2023-07-20T04:48:55;25.50;39.60
3868;DHT22;1949;48.152;11.528;2023-07-20T04:51:21;25.50;39.70
3868;DHT22;1949;48.152;11.528;2023-07-20T04:53:47;25.50;39.70
3868;DHT22;1949;48.152;11.528;2023-07-20T04:56:14;25.50;39.70
3868;DHT22;1949;48.152;11.528;2023-07-20T04:58:47;25.40;39.70
3868;DHT22;1949;48.152;11.528;2023-07-20T05:01:15;25.40;39.90
3868;DHT22;1949;48.152;11.528;2023-07-20T05:03:40;25.40;40.00
3868;DHT22;1949;48.152;11.528;2023-07-20T05:06:07;25.40;39.80
3868;DHT22;1949;48.152;11.528;2023-07-20T05:08:33;25.40;39.80
3868;DHT22;1949;48.152;11.528;2023-07-20T05:11:00;25.40;39.70
3868;DHT22;1949;48.152;11.528;2023-07-20T05:13:25;25.40;39.70
3868;DHT22;1949;48.152;11.528;2023-07-20T05:15:52;25.30;39.90
3868;DHT22;1949;48.152;11.528;2023-07-20T05:18:23;25.30;39.70
3868;DHT22;1949;48.152;11.528;2023-07-20T05:20:49;25.30;39.70
3868;DHT22;1949;48.152;11.528;2023-07-20T05:23:18;25.20;39.60
3868;DHT22;1949;48.152;11.528;2023-07-20T05:25:45;25.20;39.60
3868;DHT22;1949;48.152;11.528;2023-07-20T05:28:12;25.30;39.40
3868;DHT22;1949;48.152;11.528;2023-07-20T05:30:37;25.30;39.20
3868;DHT22;1949;48.152;11.528;2023-07-20T05:33:03;25.30;39.10
3868;DHT22;1949;48.152;11.528;2023-07-20T05:35:29;25.30;39.20
3868;DHT22;1949;48.152;11.528;2023-07-20T05:37:56;25.40;39.10
3868;DHT22;1949;48.152;11.528;2023-07-20T05:40:23;25.40;38.80
3868;DHT22;1949;48.152;11.528;2023-07-20T05:42:49;25.40;38.60
3868;DHT22;1949;48.152;11.528;2023-07-20T05:45:17;25.50;38.40
3868;DHT22;1949;48.152;11.528;2023-07-20T05:47:47;25.50;38.10
3868;DHT22;1949;48.152;11.528;2023-07-20T05:50:13;25.50;37.90
3868;DHT22;1949;48.152;11.528;2023-07-20T05:52:39;25.50;37.70
3868;DHT22;1949;48.152;11.528;2023-07-20T05:55:06;25.50;37.50
3868;DHT22;1949;48.152;11.528;2023-07-20T05:57:32;25.50;37.40
3868;DHT22;1949;48.152;11.528;2023-07-20T05:59:58;25.50;37.20
3868;DHT22;1949;48.152;11.528;2023-07-20T06:02:23;25.50;37.00
3868;DHT22;1949;48.152;11.528;2023-07-20T06:04:49;25.40;37.10
3868;DHT22;1949;48.152;11.528;2023-07-20T06:07:15;25.40;37.10
3868;DHT22;1949;48.152;11.528;2023-07-20T06:09:41;25.40;37.00
3868;DHT22;1949;48.152;11.528;2023-07-20T06:12:07;25.50;37.00
3868;DHT22;1949;48.152;11.528;2023-07-20T06:14:34;25.50;36.80
3868;DHT22;1949;48.152;11.528;2023-07-20T06:17:03;25.50;36.90
3868;DHT22;1949;48.152;11.528;2023-07-20T06:19:29;25.50;36.70
3868;DHT22;1949;48.152;11.528;2023-07-20T06:21:58;25.50;36.60
3868;DHT22;1949;48.152;11.528;2023-07-20T06:24:24;25.50;36.60
3868;DHT22;1949;48.152;11.528;2023-07-20T06:26:51;25.50;36.60
3868;DHT22;1949;48.152;11.528;2023-07-20T06:29:17;25.50;37.20
3868;DHT22;1949;48.152;11.528;2023-07-20T06:31:52;25.50;36.50
3868;DHT22;1949;48.152;11.528;2023-07-20T06:34:19;25.40;36.40
3868;DHT22;1949;48.152;11.528;2023-07-20T06:36:45;25.40;36.40
3868;DHT22;1949;48.152;11.528;2023-07-20T06:39:14;25.40;36.50
3868;DHT22;1949;48.152;11.528;2023-07-20T06:41:41;25.50;36.60
3868;DHT22;1949;48.152;11.528;2023-07-20T06:44:09;25.40;36.40
3868;DHT22;1949;48.152;11.528;2023-07-20T06:46:34;25.40;36.40
3868;DHT22;1949;48.152;11.528;2023-07-20T06:49:01;25.40;36.50
3868;DHT22;1949;48.152;11.528;2023-07-20T06:51:27;25.50;36.60
3868;DHT22;1949;48.152;11.528;2023-07-20T06:54:00;25.60;36.50
3868;DHT22;1949;48.152;11.528;2023-07-20T06:56:28;25.60;36.60
3868;DHT22;1949;48.152;11.528;2023-07-20T06:58:55;25.70;36.50
3868;DHT22;1949;48.152;11.528;2023-07-20T07:01:23;25.70;36.20
3868;DHT22;1949;48.152;11.528;2023-07-20T07:03:48;25.80;36.20
3868;DHT22;1949;48.152;11.528;2023-07-20T07:06:17;25.80;36.00
3868;DHT22;1949;48.152;11.528;2023-07-20T07:08:45;25.70;36.50
3868;DHT22;1949;48.152;11.528;2023-07-20T07:11:10;25.70;35.90
3868;DHT22;1949;48.152;11.528;2023-07-20T07:13:39;25.70;35.80
3868;DHT22;1949;48.152;11.528;2023-07-20T07:16:07;25.70;35.90
3868;DHT22;1949;48.152;11.528;2023-07-20T07:18:37;25.70;35.70
3868;DHT22;1949;48.152;11.528;2023-07-20T07:21:02;25.70;35.70
3868;DHT22;1949;48.152;11.528;2023-07-20T07:23:28;25.70;35.70
3868;DHT22;1949;48.152;11.528;2023-07-20T07:25:55;25.60;35.70
3868;DHT22;1949;48.152;11.528;2023-07-20T07:28:21;25.60;35.60
3868;DHT22;1949;48.152;11.528;2023-07-20T07:30:55;25.60;35.70
3868;DHT22;1949;48.152;11.528;2023-07-20T07:33:22;25.70;35.90
3868;DHT22;1949;48.152;11.528;2023-07-20T07:35:50;25.80;35.80
3868;DHT22;1949;48.152;11.528;2023-07-20T07:38:18;25.80;35.50
3868;DHT22;1949;48.152;11.528;2023-07-20T07:40:44;25.80;35.50
3868;DHT22;1949;48.152;11.528;2023-07-20T07:43:09;25.80;35.20
3868;DHT22;1949;48.152;11.528;2023-07-20T07:45:35;25.80;35.20
3868;DHT22;1949;48.152;11.528;2023-07-20T07:48:05;25.80;35.10
3868;DHT22;1949;48.152;11.528;2023-07-20T07:50:33;25.80;35.10
3868;DHT22;1949;48.152;11.528;2023-07-20T07:53:00;25.90;35.10
3868;DHT22;1949;48.152;11.528;2023-07-20T07:55:26;25.90;34.90
3868;DHT22;1949;48.152;11.528;2023-07-20T07:57:54;25.90;34.90
3868;DHT22;1949;48.152;11.528;2023-07-20T08:00:20;25.90;34.70
3868;DHT22;1949;48.152;11.528;2023-07-20T08:02:46;25.90;34.60
3868;DHT22;1949;48.152;11.528;2023-07-20T08:05:14;25.90;34.70
3868;DHT22;1949;48.152;11.528;2023-07-20T08:07:39;25.90;34.60
3868;DHT22;1949;48.152;11.528;2023-07-20T08:10:06;25.90;34.70
3868;DHT22;1949;48.152;11.528;2023-07-20T08:12:34;26.00;34.50
3868;DHT22;1949;48.152;11.528;2023-07-20T08:15:00;25.90;34.50
3868;DHT22;1949;48.152;11.528;2023-07-20T08:17:27;25.90;34.60
3868;DHT22;1949;48.152;11.528;2023-07-20T08:19:53;26.00;34.70
3868;DHT22;1949;48.152;11.528;2023-07-20T08:22:18;26.10;34.70
3868;DHT22;1949;48.152;11.528;2023-07-20T08:24:44;26.10;34.60
3868;DHT22;1949;48.152;11.528;2023-07-20T08:27:16;26.10;34.30
3868;DHT22;1949;48.152;11.528;2023-07-20T08:29:42;26.10;34.10
3868;DHT22;1949;48.152;11.528;2023-07-20T08:32:08;26.10;34.00
3868;DHT22;1949;48.152;11.528;2023-07-20T08:34:33;26.10;33.80
3868;DHT22;1949;48.152;11.528;2023-07-20T08:36:59;26.00;33.80
3868;DHT22;1949;48.152;11.528;2023-07-20T08:39:25;26.00;33.80
3868;DHT22;1949;48.152;11.528;2023-07-20T08:41:52;26.00;33.70
3868;DHT22;1949;48.152;11.528;2023-07-20T08:44:17;25.90;33.80
3868;DHT22;1949;48.152;11.528;2023-07-20T08:46:44;25.90;33.80
3868;DHT22;1949;48.152;11.528;2023-07-20T08:49:12;25.90;33.70
3868;DHT22;1949;48.152;11.528;2023-07-20T08:51:39;25.90;33.80
3868;DHT22;1949;48.152;11.528;2023-07-20T08:54:06;25.80;33.70
3868;DHT22;1949;48.152;11.528;2023-07-20T08:56:34;25.80;33.90
3868;DHT22;1949;48.152;11.528;2023-07-20T08:59:01;25.80;33.90
3868;DHT22;1949;48.152;11.528;2023-07-20T09:01:29;25.90;34.10
3868;DHT22;1949;48.152;11.528;2023-07-20T09:03:57;26.00;34.00
3868;DHT22;1949;48.152;11.528;2023-07-20T09:06:23;26.00;33.80
3868;DHT22;1949;48.152;11.528;2023-07-20T09:08:49;26.00;33.70
3868;DHT22;1949;48.152;11.528;2023-07-20T09:11:14;25.90;33.60
3868;DHT22;1949;48.152;11.528;2023-07-20T09:13:40;25.90;33.70
3868;DHT22;1949;48.152;11.528;2023-07-20T09:16:06;25.90;33.70
3868;DHT22;1949;48.152;11.528;2023-07-20T09:18:32;25.90;33.80
3868;DHT22;1949;48.152;11.528;2023-07-20T09:21:06;25.90;33.70
3868;DHT22;1949;48.152;11.528;2023-07-20T09:25:58;26.00;33.60
3868;DHT22;1949;48.152;11.528;2023-07-20T09:28:24;26.00;33.50
3868;DHT22;1949;48.152;11.528;2023-07-20T09:30:50;25.90;33.50
3868;DHT22;1949;48.152;11.528;2023-07-20T09:33:23;26.00;33.40
3868;DHT22;1949;48.152;11.528;2023-07-20T09:36:02;26.00;33.40
3868;DHT22;1949;48.152;11.528;2023-07-20T09:38:29;26.10;33.30
3868;DHT22;1949;48.152;11.528;2023-07-20T09:40:56;26.10;33.20
3868;DHT22;1949;48.152;11.528;2023-07-20T09:43:24;26.10;33.00
3868;DHT22;1949;48.152;11.528;2023-07-20T09:45:50;26.10;33.00
3868;DHT22;1949;48.152;11.528;2023-07-20T09:48:16;26.10;33.00
3868;DHT22;1949;48.152;11.528;2023-07-20T09:50:52;26.10;33.00
3868;DHT22;1949;48.152;11.528;2023-07-20T09:53:19;26.10;33.20
3868;DHT22;1949;48.152;11.528;2023-07-20T09:55:47;26.10;33.30
3868;DHT22;1949;48.152;11.528;2023-07-20T09:58:14;26.10;33.30
3868;DHT22;1949;48.152;11.528;2023-07-20T10:00:42;26.20;33.30
3868;DHT22;1949;48.152;11.528;2023-07-20T10:03:16;26.20;33.30
3868;DHT22;1949;48.152;11.528;2023-07-20T10:05:47;26.30;33.20
3868;DHT22;1949;48.152;11.528;2023-07-20T10:08:15;26.30;33.30
3868;DHT22;1949;48.152;11.528;2023-07-20T10:10:42;26.40;33.40
3868;DHT22;1949;48.152;11.528;2023-07-20T10:13:13;26.40;33.80
3868;DHT22;1949;48.152;11.528;2023-07-20T10:15:50;26.50;33.00
3868;DHT22;1949;48.152;11.528;2023-07-20T10:18:31;26.50;33.00
3868;DHT22;1949;48.152;11.528;2023-07-20T10:21:00;26.40;33.00
3868;DHT22;1949;48.152;11.528;2023-07-20T10:23:29;26.40;33.10
3868;DHT22;1949;48.152;11.528;2023-07-20T10:25:56;26.40;33.00
3868;DHT22;1949;48.152;11.528;2023-07-20T10:28:25;26.40;33.10
3868;DHT22;1949;48.152;11.528;2023-07-20T10:30:51;26.40;33.10
3868;DHT22;1949;48.152;11.528;2023-07-20T10:33:18;26.40;33.10
3868;DHT22;1949;48.152;11.528;2023-07-20T10:36:02;26.50;33.10
3868;DHT22;1949;48.152;11.528;2023-07-20T10:38:56;26.50;33.20
3868;DHT22;1949;48.152;11.528;2023-07-20T10:41:37;26.50;33.30
3868;DHT22;1949;48.152;11.528;2023-07-20T10:44:04;26.60;33.30
3868;DHT22;1949;48.152;11.528;2023-07-20T10:49:02;26.70;33.10
3868;DHT22;1949;48.152;11.528;2023-07-20T10:51:46;26.70;33.00
3868;DHT22;1949;48.152;11.528;2023-07-20T10:56:48;26.70;33.20
3868;DHT22;1949;48.152;11.528;2023-07-20T10:59:35;26.70;33.20
3868;DHT22;1949;48.152;11.528;2023-07-20T11:02:06;26.70;33.10
3868;DHT22;1949;48.152;11.528;2023-07-20T11:04:43;26.70;32.90
3868;DHT22;1949;48.152;11.528;2023-07-20T11:07:10;26.70;32.90
3868;DHT22;1949;48.152;11.528;2023-07-20T11:09:38;26.70;32.90
3868;DHT22;1949;48.152;11.528;2023-07-20T11:12:15;26.70;33.00
3868;DHT22;1949;48.152;11.528;2023-07-20T11:14:54;26.70;32.90
3868;DHT22;1949;48.152;11.528;2023-07-20T11:17:30;26.80;33.00
3868;DHT22;1949;48.152;11.528;2023-07-20T11:20:00;26.80;33.10
3868;DHT22;1949;48.152;11.528;2023-07-20T11:22:27;26.80;32.90
3868;DHT22;1949;48.152;11.528;2023-07-20T11:25:06;26.80;33.40
3868;DHT22;1949;48.152;11.528;2023-07-20T11:27:45;26.80;32.90
3868;DHT22;1949;48.152;11.528;2023-07-20T11:30:21;26.90;32.80
3868;DHT22;1949;48.152;11.528;2023-07-20T11:32:50;27.00;32.90
3868;DHT22;1949;48.152;11.528;2023-07-20T11:35:16;27.00;32.70
3868;DHT22;1949;48.152;11.528;2023-07-20T11:37:43;27.00;32.60
3868;DHT22;1949;48.152;11.528;2023-07-20T11:40:10;27.10;32.50
3868;DHT22;1949;48.152;11.528;2023-07-20T11:42:38;27.10;32.50
3868;DHT22;1949;48.152;11.528;2023-07-20T11:45:07;27.00;32.50
3868;DHT22;1949;48.152;11.528;2023-07-20T11:47:34;27.10;32.60
3868;DHT22;1949;48.152;11.528;2023-07-20T11:50:04;27.10;32.60
3868;DHT22;1949;48.152;11.528;2023-07-20T11:52:30;27.10;32.60
3868;DHT22;1949;48.152;11.528;2023-07-20T11:54:57;27.20;32.80
3868;DHT22;1949;48.152;11.528;2023-07-20T11:57:23;27.30;32.50
3868;DHT22;1949;48.152;11.528;2023-07-20T11:59:56;27.30;32.40
3868;DHT22;1949;48.152;11.528;2023-07-20T12:02:33;27.30;32.40
3868;DHT22;1949;48.152;11.528;2023-07-20T12:04:59;27.30;32.40
3868;DHT22;1949;48.152;11.528;2023-07-20T12:07:27;27.30;32.40
3868;DHT22;1949;48.152;11.528;2023-07-20T12:10:13;27.30;32.50
3868;DHT22;1949;48.152;11.528;2023-07-20T12:12:44;27.30;32.30
3868;DHT22;1949;48.152;11.528;2023-07-20T12:15:24;27.30;32.30
3868;DHT22;1949;48.152;11.528;2023-07-20T12:18:03;27.30;32.20
3868;DHT22;1949;48.152;11.528;2023-07-20T12:20:34;27.30;32.30
3868;DHT22;1949;48.152;11.528;2023-07-20T12:23:09;27.40;32.30
3868;DHT22;1949;48.152;11.528;2023-07-20T12:25:46;27.40;32.20
3868;DHT22;1949;48.152;11.528;2023-07-20T12:28:18;27.50;32.30
3868;DHT22;1949;48.152;11.528;2023-07-20T12:30:51;27.60;32.30
3868;DHT22;1949;48.152;11.528;2023-07-20T12:33:24;27.60;32.30
3868;DHT22;1949;48.152;11.528;2023-07-20T12:36:00;27.70;32.20
3868;DHT22;1949;48.152;11.528;2023-07-20T12:38:27;27.80;32.10
3868;DHT22;1949;48.152;11.528;2023-07-20T12:40:55;27.80;31.90
3868;DHT22;1949;48.152;11.528;2023-07-20T12:43:28;27.80;31.80
3868;DHT22;1949;48.152;11.528;2023-07-20T12:45:56;27.90;32.00
3868;DHT22;1949;48.152;11.528;2023-07-20T12:48:22;28.00;31.90
3868;DHT22;1949;48.152;11.528;2023-07-20T12:50:49;28.00;31.70
3868;DHT22;1949;48.152;11.528;2023-07-20T12:53:15;28.10;31.70
3868;DHT22;1949;48.152;11.528;2023-07-20T12:55:42;28.10;31.50
3868;DHT22;1949;48.152;11.528;2023-07-20T12:58:08;28.20;31.50
3868;DHT22;1949;48.152;11.528;2023-07-20T13:00:37;28.30;31.30
3868;DHT22;1949;48.152;11.528;2023-07-20T13:03:04;28.30;31.30
3868;DHT22;1949;48.152;11.528;2023-07-20T13:05:35;28.20;31.20
3868;DHT22;1949;48.152;11.528;2023-07-20T13:08:02;28.10;31.20
3868;DHT22;1949;48.152;11.528;2023-07-20T13:10:30;28.20;31.20
3868;DHT22;1949;48.152;11.528;2023-07-20T13:12:57;28.20;31.20
3868;DHT22;1949;48.152;11.528;2023-07-20T13:15:28;28.20;31.70
3868;DHT22;1949;48.152;11.528;2023-07-20T13:17:56;28.30;31.30
3868;DHT22;1949;48.152;11.528;2023-07-20T13:20:24;28.40;31.20
3868;DHT22;1949;48.152;11.528;2023-07-20T13:22:51;28.30;30.90
3868;DHT22;1949;48.152;11.528;2023-07-20T13:25:17;28.40;31.00
3868;DHT22;1949;48.152;11.528;2023-07-20T13:27:45;28.50;31.10
3868;DHT22;1949;48.152;11.528;2023-07-20T13:30:12;28.50;31.10
3868;DHT22;1949;48.152;11.528;2023-07-20T13:32:44;28.60;30.90
3868;DHT22;1949;48.152;11.528;2023-07-20T13:35:11;28.70;30.80
3868;DHT22;1949;48.152;11.528;2023-07-20T13:37:37;28.80;31.10
3868;DHT22;1949;48.152;11.528;2023-07-20T13:40:03;28.90;30.70
3868;DHT22;1949;48.152;11.528;2023-07-20T13:42:33;28.90;30.40
3868;DHT22;1949;48.152;11.528;2023-07-20T13:45:00;29.00;30.30
3868;DHT22;1949;48.152;11.528;2023-07-20T13:47:26;29.00;30.30
3868;DHT22;1949;48.152;11.528;2023-07-20T13:49:52;29.00;30.50
3868;DHT22;1949;48.152;11.528;2023-07-20T13:52:19;29.00;30.30
3868;DHT22;1949;48.152;11.528;2023-07-20T13:54:47;29.10;30.40
3868;DHT22;1949;48.152;11.528;2023-07-20T13:57:16;29.20;30.20
3868;DHT22;1949;48.152;11.528;2023-07-20T13:59:46;29.30;30.20
3868;DHT22;1949;48.152;11.528;2023-07-20T14:02:15;29.30;29.90
3868;DHT22;1949;48.152;11.528;2023-07-20T14:04:41;29.40;30.00
3868;DHT22;1949;48.152;11.528;2023-07-20T14:07:06;29.40;29.90
3868;DHT22;1949;48.152;11.528;2023-07-20T14:09:32;29.40;29.90
3868;DHT22;1949;48.152;11.528;2023-07-20T14:11:58;29.50;29.80
3868;DHT22;1949;48.152;11.528;2023-07-20T14:14:24;29.50;29.70
3868;DHT22;1949;48.152;11.528;2023-07-20T14:16:50;29.50;29.60
3868;DHT22;1949;48.152;11.528;2023-07-20T14:19:16;29.60;29.80
3868;DHT22;1949;48.152;11.528;2023-07-20T14:21:42;29.70;29.60
3868;DHT22;1949;48.152;11.528;2023-07-20T14:24:08;29.80;29.50
3868;DHT22;1949;48.152;11.528;2023-07-20T14:26:34;29.90;29.30
3868;DHT22;1949;48.152;11.528;2023-07-20T14:29:01;29.90;29.20
3868;DHT22;1949;48.152;11.528;2023-07-20T14:31:28;30.00;29.10
3868;DHT22;1949;48.152;11.528;2023-07-20T14:33:58;30.00;29.20
3868;DHT22;1949;48.152;11.528;2023-07-20T14:36:24;30.20;29.00
3868;DHT22;1949;48.152;11.528;2023-07-20T14:38:50;30.30;29.10
3868;DHT22;1949;48.152;11.528;2023-07-20T14:41:16;30.40;28.90
3868;DHT22;1949;48.152;11.528;2023-07-20T14:43:42;30.40;29.00
3868;DHT22;1949;48.152;11.528;2023-07-20T14:46:10;30.40;28.80
3868;DHT22;1949;48.152;11.528;2023-07-20T14:48:36;30.40;28.70
3868;DHT22;1949;48.152;11.528;2023-07-20T14:51:06;30.40;28.70
3868;DHT22;1949;48.152;11.528;2023-07-20T14:53:33;30.40;29.00
3868;DHT22;1949;48.152;11.528;2023-07-20T14:56:00;30.50;28.80
3868;DHT22;1949;48.152;11.528;2023-07-20T14:58:29;30.60;28.70
3868;DHT22;1949;48.152;11.528;2023-07-20T15:00:58;30.50;28.60
3868;DHT22;1949;48.152;11.528;2023-07-20T15:03:26;30.50;28.70
3868;DHT22;1949;48.152;11.528;2023-07-20T15:05:51;30.50;28.70
3868;DHT22;1949;48.152;11.528;2023-07-20T15:08:18;30.60;28.80
3868;DHT22;1949;48.152;11.528;2023-07-20T15:10:45;30.70;28.70
3868;DHT22;1949;48.152;11.528;2023-07-20T15:13:12;30.90;28.50
3868;DHT22;1949;48.152;11.528;2023-07-20T15:15:45;31.10;28.30
3868;DHT22;1949;48.152;11.528;2023-07-20T15:18:11;31.20;28.00
3868;DHT22;1949;48.152;11.528;2023-07-20T15:20:43;31.30;27.90
3868;DHT22;1949;48.152;11.528;2023-07-20T15:23:11;31.40;27.80
3868;DHT22;1949;48.152;11.528;2023-07-20T15:25:37;31.50;27.60
3868;DHT22;1949;48.152;11.528;2023-07-20T15:28:03;31.70;27.60
3868;DHT22;1949;48.152;11.528;2023-07-20T15:30:32;31.80;27.60
3868;DHT22;1949;48.152;11.528;2023-07-20T15:32:57;31.80;27.50
3868;DHT22;1949;48.152;11.528;2023-07-20T15:35:24;31.80;27.50
3868;DHT22;1949;48.152;11.528;2023-07-20T15:37:49;31.90;27.50
3868;DHT22;1949;48.152;11.528;2023-07-20T15:40:15;31.80;27.40
3868;DHT22;1949;48.152;11.528;2023-07-20T15:42:53;31.80;27.50
3868;DHT22;1949;48.152;11.528;2023-07-20T15:45:34;31.90;27.60
3868;DHT22;1949;48.152;11.528;2023-07-20T15:48:00;31.90;27.50
3868;DHT22;1949;48.152;11.528;2023-07-20T15:50:26;31.90;27.30
3868;DHT22;1949;48.152;11.528;2023-07-20T15:52:52;32.00;27.30
3868;DHT22;1949;48.152;11.528;2023-07-20T15:55:20;31.90;27.10
3868;DHT22;1949;48.152;11.528;2023-07-20T15:57:47;31.90;27.00
3868;DHT22;1949;48.152;11.528;2023-07-20T16:00:23;31.80;27.10
3868;DHT22;1949;48.152;11.528;2023-07-20T16:02:49;31.80;27.20
3868;DHT22;1949;48.152;11.528;2023-07-20T16:05:14;31.70;27.30
3868;DHT22;1949;48.152;11.528;2023-07-20T16:07:41;31.70;27.10
3868;DHT22;1949;48.152;11.528;2023-07-20T16:10:10;31.80;27.20
3868;DHT22;1949;48.152;11.528;2023-07-20T16:12:36;31.80;27.30